createdAt,value
2022-08-26T00:02:07.155Z,99.90
2022-08-26T00:04:35.199Z,99.90
2022-08-26T00:07:02.842Z,99.90
2022-08-26T00:09:33.352Z,99.90
2022-08-26T00:12:06.744Z,99.90
2022-08-26T00:14:34.199Z,99.90
2022-08-26T00:17:01.861Z,99.90
2022-08-26T00:19:29.456Z,99.90
2022-08-26T00:21:57.215Z,99.90
2022-08-26T00:24:24.782Z,99.90
2022-08-26T00:26:52.984Z,99.90
2022-08-26T00:29:21.204Z,99.90
2022-08-26T00:31:49.112Z,99.90
2022-08-26T00:34:19.377Z,99.90
2022-08-26T00:36:47.864Z,99.90
2022-08-26T00:39:20.206Z,99.90
2022-08-26T00:41:48.018Z,99.90
2022-08-26T00:44:16.213Z,99.90
2022-08-26T00:46:46.909Z,99.90
2022-08-26T00:49:29.547Z,99.90
2022-08-26T00:52:00.926Z,99.90
2022-08-26T00:54:32.579Z,99.90
2022-08-26T00:57:08.689Z,99.90
2022-08-26T00:59:49.129Z,99.90
2022-08-26T01:02:21.266Z,99.90
2022-08-26T01:04:55.808Z,99.90
2022-08-26T01:07:26.226Z,99.90
2022-08-26T01:09:56.331Z,99.90
2022-08-26T01:12:31.783Z,99.90
2022-08-26T01:15:00.213Z,99.90
2022-08-26T01:17:28.006Z,99.90
2022-08-26T01:20:08.704Z,99.90
2022-08-26T01:22:57.798Z,99.90
2022-08-26T01:25:28.718Z,99.90
2022-08-26T01:27:58.464Z,99.90
2022-08-26T01:30:28.044Z,99.90
2022-08-26T01:32:59.348Z,99.90
2022-08-26T01:35:27.210Z,99.90
2022-08-26T01:37:56.426Z,99.90
2022-08-26T01:40:29.705Z,99.90
2022-08-26T01:42:57.645Z,99.90
2022-08-26T01:45:28.941Z,99.90
2022-08-26T01:48:00.151Z,99.90
2022-08-26T01:50:34.679Z,99.90
2022-08-26T01:53:09.504Z,99.90
2022-08-26T01:55:41.660Z,99.90
2022-08-26T01:58:15.356Z,99.90
2022-08-26T02:00:44.143Z,99.90
2022-08-26T02:03:17.712Z,99.90
2022-08-26T02:06:09.410Z,99.90
2022-08-26T02:08:46.560Z,99.90
2022-08-26T02:11:14.862Z,99.90
2022-08-26T02:13:51.416Z,99.90
2022-08-26T02:16:23.879Z,99.90
2022-08-26T02:18:53.337Z,99.90
2022-08-26T02:21:21.303Z,99.90
2022-08-26T02:23:49.155Z,99.90
2022-08-26T02:26:20.192Z,99.90
2022-08-26T02:28:55.678Z,99.90
2022-08-26T02:31:24.057Z,99.90
2022-08-26T02:33:51.999Z,99.90
2022-08-26T02:36:22.052Z,99.90
2022-08-26T02:38:49.697Z,99.90
2022-08-26T02:41:19.598Z,99.90
2022-08-26T02:43:50.534Z,99.90
2022-08-26T02:46:27.733Z,99.90
2022-08-26T02:48:58.583Z,99.90
2022-08-26T02:51:26.087Z,99.90
2022-08-26T02:53:54.229Z,99.90
2022-08-26T02:56:23.633Z,99.90
2022-08-26T02:58:51.258Z,99.90
2022-08-26T03:01:26.796Z,99.90
2022-08-26T03:03:55.423Z,99.90
2022-08-26T03:06:24.591Z,99.90
2022-08-26T03:08:53.314Z,99.90
2022-08-26T03:11:20.774Z,99.90
2022-08-26T03:13:49.811Z,99.90
2022-08-26T03:16:17.757Z,99.90
2022-08-26T03:18:52.102Z,99.90
2022-08-26T03:21:21.014Z,99.90
2022-08-26T03:23:48.690Z,99.90
2022-08-26T03:26:16.974Z,99.90
2022-08-26T03:29:03.093Z,99.90
2022-08-26T03:31:31.172Z,99.90
2022-08-26T03:33:59.896Z,99.90
2022-08-26T03:36:27.905Z,99.90
2022-08-26T03:38:56.883Z,99.90
2022-08-26T03:41:24.475Z,99.90
2022-08-26T03:43:52.450Z,99.90
2022-08-26T03:46:20.606Z,99.90
2022-08-26T03:48:48.606Z,99.90
2022-08-26T03:51:19.043Z,99.90
2022-08-26T03:53:48.089Z,99.90
2022-08-26T03:56:15.906Z,99.90
2022-08-26T03:58:44.611Z,99.90
2022-08-26T04:01:16.214Z,99.90
2022-08-26T04:04:00.596Z,99.90
2022-08-26T04:06:35.304Z,99.90
2022-08-26T04:09:07.479Z,99.90
2022-08-26T04:11:38.473Z,99.90
2022-08-26T04:14:10.339Z,99.90
2022-08-26T04:16:38.898Z,99.90
2022-08-26T04:19:07.260Z,99.90
2022-08-26T04:21:35.444Z,99.90
2022-08-26T04:24:03.967Z,99.90
2022-08-26T04:26:39.518Z,99.90
2022-08-26T04:29:16.079Z,99.90
2022-08-26T04:31:44.850Z,99.90
2022-08-26T04:34:14.238Z,99.90
2022-08-26T04:36:43.344Z,99.90
2022-08-26T04:39:12.542Z,99.90
2022-08-26T04:41:40.483Z,99.90
2022-08-26T04:44:08.339Z,99.90
2022-08-26T04:46:39.800Z,99.90
2022-08-26T04:49:12.153Z,99.90
2022-08-26T04:51:39.954Z,99.90
2022-08-26T04:54:07.546Z,99.90
2022-08-26T04:56:38.622Z,99.90
2022-08-26T04:59:17.000Z,99.90
2022-08-26T05:01:51.358Z,99.90
2022-08-26T05:04:20.078Z,99.90
2022-08-26T05:06:49.661Z,99.90
2022-08-26T05:09:21.211Z,99.90
2022-08-26T05:11:52.076Z,99.90
2022-08-26T05:14:23.382Z,99.90
2022-08-26T05:16:51.874Z,99.90
2022-08-26T05:19:19.746Z,99.90
2022-08-26T05:21:49.258Z,99.90
2022-08-26T05:24:17.351Z,99.90
2022-08-26T05:26:45.703Z,99.90
2022-08-26T05:29:14.072Z,99.90
2022-08-26T05:31:42.178Z,99.90
2022-08-26T05:34:10.150Z,99.90
2022-08-26T05:36:37.996Z,99.90
2022-08-26T05:39:06.681Z,99.90
2022-08-26T05:41:38.773Z,99.90
2022-08-26T05:44:09.869Z,99.90
2022-08-26T05:46:38.950Z,99.90
2022-08-26T05:49:12.534Z,99.90
2022-08-26T05:51:42.101Z,99.90
2022-08-26T05:54:10.416Z,99.90
2022-08-26T05:56:39.345Z,99.90
2022-08-26T05:59:14.380Z,99.90
2022-08-26T06:01:43.501Z,99.90
2022-08-26T06:04:11.655Z,99.90
2022-08-26T06:06:41.633Z,99.90
2022-08-26T06:09:11.324Z,99.90
2022-08-26T06:11:39.654Z,99.90
2022-08-26T06:14:08.185Z,99.90
2022-08-26T06:16:40.876Z,99.90
2022-08-26T06:19:11.583Z,99.90
2022-08-26T06:21:45.652Z,99.90
2022-08-26T06:24:32.903Z,99.90
2022-08-26T06:27:04.875Z,99.90
2022-08-26T06:29:36.042Z,99.90
2022-08-26T06:32:04.715Z,99.90
2022-08-26T06:34:34.511Z,99.90
2022-08-26T06:37:03.274Z,99.90
2022-08-26T06:39:31.618Z,99.90
2022-08-26T06:42:00.985Z,99.90
2022-08-26T06:44:30.672Z,99.90
2022-08-26T06:47:00.101Z,99.90
2022-08-26T06:49:27.909Z,99.90
2022-08-26T06:51:59.452Z,99.90
2022-08-26T06:54:29.089Z,99.90
2022-08-26T06:56:57.194Z,99.90
2022-08-26T06:59:25.467Z,99.90
2022-08-26T07:01:53.498Z,99.90
2022-08-26T07:04:23.081Z,99.90
2022-08-26T07:06:53.521Z,99.90
2022-08-26T07:09:23.314Z,99.90
2022-08-26T07:11:51.836Z,99.90
2022-08-26T07:14:21.427Z,99.90
2022-08-26T07:16:50.619Z,99.90
2022-08-26T07:19:30.353Z,99.90
2022-08-26T07:22:02.138Z,99.90
2022-08-26T07:24:31.074Z,99.90
2022-08-26T07:27:00.460Z,99.90
2022-08-26T07:29:29.218Z,99.90
2022-08-26T07:31:57.582Z,99.90
2022-08-26T07:34:25.499Z,99.90
2022-08-26T07:36:53.722Z,99.90
2022-08-26T07:39:23.745Z,99.90
2022-08-26T07:41:52.479Z,99.90
2022-08-26T07:44:21.006Z,99.90
2022-08-26T07:46:52.364Z,99.90
2022-08-26T07:49:22.925Z,99.90
2022-08-26T07:51:51.530Z,99.90
2022-08-26T07:54:19.779Z,99.90
2022-08-26T07:56:49.380Z,99.90
2022-08-26T07:59:20.125Z,99.90
2022-08-26T08:01:48.928Z,99.90
2022-08-26T08:04:19.413Z,99.90
2022-08-26T08:06:54.227Z,99.90
2022-08-26T08:09:22.541Z,99.90
2022-08-26T08:11:51.384Z,99.90
2022-08-26T08:14:22.211Z,99.90
2022-08-26T08:16:51.118Z,99.90
2022-08-26T08:19:23.937Z,99.90
2022-08-26T08:21:57.443Z,99.90
2022-08-26T08:24:24.963Z,99.90
2022-08-26T08:26:52.556Z,99.90
2022-08-26T08:29:23.748Z,99.90
2022-08-26T08:31:56.759Z,99.90
2022-08-26T08:34:28.617Z,99.90
2022-08-26T08:36:57.260Z,99.90
2022-08-26T08:39:26.337Z,99.90
2022-08-26T08:42:33.303Z,99.90
2022-08-26T08:45:07.199Z,99.90
2022-08-26T08:47:42.857Z,99.90
2022-08-26T08:50:30.445Z,99.90
2022-08-26T08:53:18.925Z,99.90
2022-08-26T08:55:49.474Z,99.90
2022-08-26T08:58:21.051Z,99.90
2022-08-26T09:00:57.440Z,99.90
2022-08-26T09:03:25.097Z,99.90
2022-08-26T09:05:54.614Z,99.90
2022-08-26T09:08:28.387Z,99.90
2022-08-26T09:10:59.568Z,99.90
2022-08-26T09:13:28.215Z,99.90
2022-08-26T09:16:06.398Z,99.90
2022-08-26T09:18:34.279Z,99.90
2022-08-26T09:21:05.978Z,99.90
2022-08-26T09:23:36.331Z,99.90
2022-08-26T09:26:38.860Z,99.90
2022-08-26T09:29:28.034Z,99.90
2022-08-26T09:32:24.183Z,99.90
2022-08-26T09:34:54.816Z,99.90
2022-08-26T09:37:41.177Z,99.90
2022-08-26T09:40:23.058Z,99.90
2022-08-26T09:43:22.854Z,99.90
2022-08-26T09:45:59.059Z,99.90
2022-08-26T09:48:36.837Z,99.90
2022-08-26T09:51:26.998Z,99.90
2022-08-26T09:53:57.799Z,99.90
2022-08-26T09:56:38.346Z,99.90
2022-08-26T09:59:15.304Z,99.90
2022-08-26T10:02:04.516Z,99.90
2022-08-26T10:05:08.963Z,99.90
2022-08-26T10:07:54.924Z,99.90
2022-08-26T10:10:32.897Z,99.90
2022-08-26T10:13:57.492Z,99.90
2022-08-26T10:20:22.411Z,99.90
2022-08-26T10:23:14.902Z,99.90
2022-08-26T10:25:54.102Z,99.90
2022-08-26T10:29:06.321Z,99.90
2022-08-26T10:31:48.994Z,99.90
2022-08-26T10:34:21.259Z,99.90
2022-08-26T10:37:14.111Z,99.90
2022-08-26T10:39:57.076Z,99.90
2022-08-26T10:42:28.949Z,99.90
2022-08-26T10:48:36.035Z,99.90
2022-08-26T10:51:18.755Z,99.90
2022-08-26T10:54:17.899Z,99.90
2022-08-26T10:57:11.327Z,99.90
2022-08-26T10:59:57.144Z,99.90
2022-08-26T11:02:47.090Z,99.90
2022-08-26T11:05:20.040Z,99.90
2022-08-26T11:07:54.835Z,99.90
2022-08-26T11:10:25.176Z,99.90
2022-08-26T11:13:04.053Z,99.90
2022-08-26T11:15:31.951Z,99.90
2022-08-26T11:18:13.257Z,99.90
2022-08-26T11:20:44.862Z,99.90
2022-08-26T11:23:13.514Z,99.70
2022-08-26T11:25:58.926Z,99.80
2022-08-26T11:28:44.251Z,98.60
2022-08-26T11:31:33.556Z,98.10
2022-08-26T11:34:07.159Z,98.90
2022-08-26T11:36:47.781Z,98.00
2022-08-26T11:39:31.020Z,96.70
2022-08-26T11:42:31.506Z,96.20
2022-08-26T11:45:14.210Z,95.60
2022-08-26T11:47:42.069Z,94.70
2022-08-26T11:50:18.653Z,97.20
2022-08-26T11:53:04.365Z,96.10
2022-08-26T11:55:41.785Z,95.60
2022-08-26T11:58:13.071Z,96.40
2022-08-26T12:00:51.643Z,96.70
2022-08-26T12:03:26.639Z,94.90
2022-08-26T12:05:57.292Z,95.10
2022-08-26T12:08:30.575Z,95.50
2022-08-26T12:11:08.604Z,95.70
2022-08-26T12:13:39.165Z,94.50
2022-08-26T12:16:07.411Z,95.30
2022-08-26T12:18:38.597Z,95.00
2022-08-26T12:21:22.705Z,94.40
2022-08-26T12:23:55.538Z,93.40
2022-08-26T12:26:29.419Z,94.00
2022-08-26T12:29:18.034Z,93.80
2022-08-26T12:31:48.807Z,92.00
2022-08-26T12:34:18.513Z,93.60
2022-08-26T12:36:55.609Z,93.30
2022-08-26T12:39:31.203Z,92.60
2022-08-26T12:42:00.942Z,92.30
2022-08-26T12:44:53.934Z,92.90
2022-08-26T12:47:42.507Z,91.90
2022-08-26T12:50:19.400Z,91.40
2022-08-26T12:52:53.203Z,91.70
2022-08-26T12:55:31.576Z,92.10
2022-08-26T12:58:13.876Z,91.80
2022-08-26T13:00:42.960Z,84.10
2022-08-26T13:03:29.219Z,85.40
2022-08-26T13:06:19.025Z,81.30
2022-08-26T13:08:47.555Z,82.80
2022-08-26T13:11:20.930Z,83.60
2022-08-26T13:13:58.019Z,83.50
2022-08-26T13:16:27.162Z,81.50
2022-08-26T13:18:59.794Z,82.60
2022-08-26T13:21:32.058Z,82.00
2022-08-26T13:24:08.965Z,82.20
2022-08-26T13:26:36.460Z,80.50
2022-08-26T13:29:07.291Z,80.40
2022-08-26T13:31:41.028Z,79.70
2022-08-26T13:34:16.148Z,78.60
2022-08-26T13:36:44.932Z,78.70
2022-08-26T13:39:13.575Z,78.80
2022-08-26T13:41:43.844Z,77.60
2022-08-26T13:44:14.566Z,79.70
2022-08-26T13:46:42.297Z,77.70
2022-08-26T13:49:10.848Z,77.00
2022-08-26T13:51:38.587Z,77.00
2022-08-26T13:54:06.554Z,77.00
2022-08-26T13:56:34.225Z,77.10
2022-08-26T13:59:03.163Z,73.50
2022-08-26T14:01:34.515Z,76.50
2022-08-26T14:04:03.155Z,75.40
2022-08-26T14:06:38.158Z,76.10
2022-08-26T14:09:05.683Z,76.20
2022-08-26T14:11:50.534Z,76.70
2022-08-26T14:14:22.172Z,76.50
2022-08-26T14:16:58.874Z,76.60
2022-08-26T14:19:29.973Z,74.00
2022-08-26T14:22:00.633Z,75.00
2022-08-26T14:24:28.930Z,75.30
2022-08-26T14:26:56.394Z,76.00
2022-08-26T14:29:23.816Z,75.80
2022-08-26T14:31:51.425Z,76.60
2022-08-26T14:34:19.020Z,76.70
2022-08-26T14:36:46.482Z,76.70
2022-08-26T14:39:14.620Z,76.80
2022-08-26T14:41:54.137Z,77.40
2022-08-26T14:44:25.693Z,76.30
2022-08-26T14:46:54.596Z,77.20
2022-08-26T14:49:24.278Z,75.60
2022-08-26T14:51:51.840Z,73.90
2022-08-26T14:54:21.201Z,74.00
2022-08-26T14:57:01.220Z,74.00
2022-08-26T14:59:36.594Z,73.70
2022-08-26T15:02:06.678Z,74.40
2022-08-26T15:04:34.904Z,73.70
2022-08-26T15:07:03.611Z,74.10
2022-08-26T15:09:34.317Z,74.50
2022-08-26T15:12:02.600Z,74.60
2022-08-26T15:14:32.923Z,74.60
2022-08-26T15:17:00.811Z,74.20
2022-08-26T15:19:28.421Z,73.80
2022-08-26T15:21:55.958Z,72.90
2022-08-26T15:24:25.235Z,72.60
2022-08-26T15:26:53.540Z,71.50
2022-08-26T15:29:22.245Z,71.50
2022-08-26T15:31:51.011Z,70.70
2022-08-26T15:34:19.559Z,70.90
2022-08-26T15:36:48.280Z,71.00
2022-08-26T15:39:17.177Z,70.80
2022-08-26T15:41:44.861Z,70.20
2022-08-26T15:44:14.137Z,71.10
2022-08-26T15:46:42.167Z,71.30
2022-08-26T15:49:11.998Z,71.70
2022-08-26T15:51:46.926Z,71.90
2022-08-26T15:54:16.732Z,72.10
2022-08-26T15:56:49.101Z,71.80
2022-08-26T16:11:46.305Z,68.40
2022-08-26T16:14:16.720Z,72.80
2022-08-26T16:16:44.401Z,72.80
2022-08-26T16:19:11.956Z,74.00
2022-08-26T16:21:41.247Z,74.40
2022-08-26T16:24:09.292Z,74.30
2022-08-26T16:26:38.415Z,74.70
2022-08-26T16:29:08.696Z,74.30
2022-08-26T16:31:38.290Z,74.30
2022-08-26T16:34:07.812Z,74.00
2022-08-26T16:36:37.559Z,73.60
2022-08-26T16:39:06.453Z,74.10
2022-08-26T16:41:35.077Z,74.90
2022-08-26T16:44:03.315Z,75.10
2022-08-26T16:46:31.309Z,75.60
2022-08-26T16:48:59.173Z,75.20
2022-08-26T16:51:28.397Z,77.00
2022-08-26T16:53:57.432Z,75.30
2022-08-26T16:56:33.734Z,75.10
2022-08-26T16:59:06.158Z,74.80
2022-08-26T17:01:34.309Z,75.10
2022-08-26T17:04:02.006Z,75.50
2022-08-26T17:06:29.752Z,75.20
2022-08-26T17:08:57.459Z,75.60
2022-08-26T17:11:25.148Z,75.90
2022-08-26T17:13:52.692Z,76.70
2022-08-26T17:16:23.328Z,76.40
2022-08-26T17:18:55.876Z,76.60
2022-08-26T17:21:24.264Z,77.00
2022-08-26T17:23:52.484Z,77.70
2022-08-26T17:26:20.775Z,77.60
2022-08-26T17:28:48.805Z,77.50
2022-08-26T17:31:16.568Z,77.90
2022-08-26T17:33:46.722Z,78.90
2022-08-26T17:36:16.962Z,79.10
2022-08-26T17:38:44.363Z,79.50
2022-08-26T17:41:14.264Z,80.70
2022-08-26T17:43:41.878Z,80.60
2022-08-26T17:46:11.490Z,80.80
2022-08-26T17:48:40.966Z,80.30
2022-08-26T17:51:13.863Z,80.70
2022-08-26T17:53:42.399Z,80.90
2022-08-26T17:56:13.133Z,81.10
2022-08-26T17:58:41.232Z,81.20
2022-08-26T18:01:20.322Z,81.90
2022-08-26T18:03:48.637Z,82.40
2022-08-26T18:06:16.357Z,83.00
2022-08-26T18:08:44.910Z,83.80
2022-08-26T18:11:18.538Z,83.60
2022-08-26T18:13:47.822Z,84.30
2022-08-26T18:16:17.513Z,84.80
2022-08-26T18:18:46.510Z,85.50
2022-08-26T18:21:16.304Z,85.70
2022-08-26T18:23:45.707Z,86.10
2022-08-26T18:26:18.486Z,86.50
2022-08-26T18:28:46.402Z,86.00
2022-08-26T18:31:15.374Z,87.40
2022-08-26T18:33:43.175Z,86.90
2022-08-26T18:36:18.464Z,87.50
2022-08-26T18:38:47.444Z,87.10
2022-08-26T18:41:20.888Z,87.40
2022-08-26T18:43:50.477Z,87.80
2022-08-26T18:46:19.379Z,87.90
2022-08-26T18:48:51.096Z,88.50
2022-08-26T18:51:29.575Z,89.20
2022-08-26T18:54:00.240Z,89.40
2022-08-26T18:56:29.172Z,90.10
2022-08-26T18:58:58.294Z,90.20
2022-08-26T19:01:28.288Z,90.50
2022-08-26T19:04:01.663Z,90.70
2022-08-26T19:06:32.939Z,91.00
2022-08-26T19:09:00.860Z,91.30
2022-08-26T19:11:32.568Z,91.40
2022-08-26T19:14:10.228Z,91.40
2022-08-26T19:16:38.748Z,91.30
2022-08-26T19:19:06.481Z,91.60
2022-08-26T19:21:35.844Z,91.70
2022-08-26T19:24:07.183Z,91.90
2022-08-26T19:26:36.199Z,92.10
2022-08-26T19:29:04.488Z,92.40
2022-08-26T19:31:31.991Z,92.10
2022-08-26T19:34:00.129Z,91.90
2022-08-26T19:36:28.139Z,92.00
2022-08-26T19:38:56.708Z,92.80
2022-08-26T19:41:37.303Z,93.00
2022-08-26T19:44:13.079Z,92.50
2022-08-26T19:46:40.885Z,93.10
2022-08-26T19:49:08.530Z,93.30
2022-08-26T19:51:36.817Z,93.70
2022-08-26T19:54:04.909Z,94.10
2022-08-26T19:56:32.556Z,94.50
2022-08-26T19:59:00.127Z,95.00
2022-08-26T20:01:27.848Z,95.30
2022-08-26T20:06:27.882Z,96.10
2022-08-26T20:08:56.232Z,96.20
2022-08-26T20:11:24.736Z,96.50
2022-08-26T20:13:52.285Z,96.80
2022-08-26T20:16:19.949Z,97.10
2022-08-26T20:19:05.969Z,97.50
2022-08-26T20:21:38.138Z,97.70
2022-08-26T20:24:15.425Z,98.10
2022-08-26T20:26:44.467Z,98.70
2022-08-26T20:29:14.347Z,98.70
2022-08-26T20:31:44.643Z,98.90
2022-08-26T20:34:14.279Z,99.20
2022-08-26T20:36:43.340Z,99.40
2022-08-26T20:39:11.691Z,99.70
2022-08-26T20:41:40.440Z,99.90
2022-08-26T20:44:09.371Z,99.90
2022-08-26T20:46:37.222Z,99.90
2022-08-26T20:49:06.018Z,99.90
2022-08-26T20:51:37.265Z,99.90
2022-08-26T20:54:07.055Z,99.90
2022-08-26T20:56:35.660Z,99.90
2022-08-26T20:59:06.792Z,99.90
2022-08-26T21:01:36.736Z,99.90
2022-08-26T21:04:16.792Z,99.90
2022-08-26T21:06:49.004Z,99.90
2022-08-26T21:09:25.491Z,99.90
2022-08-26T21:11:54.756Z,99.90
2022-08-26T21:14:25.681Z,99.90
2022-08-26T21:16:53.816Z,99.90
2022-08-26T21:19:21.494Z,99.90
2022-08-26T21:21:49.169Z,99.90
2022-08-26T21:24:17.928Z,99.90
2022-08-26T21:26:45.819Z,99.90
2022-08-26T21:29:14.181Z,99.90
2022-08-26T21:31:46.169Z,99.90
2022-08-26T21:34:18.953Z,99.90
2022-08-26T21:36:48.259Z,99.90
2022-08-26T21:39:16.799Z,99.90
2022-08-26T21:41:45.783Z,99.90
2022-08-26T21:44:15.205Z,99.90
2022-08-26T21:46:44.078Z,99.90
2022-08-26T21:49:15.600Z,99.90
2022-08-26T21:51:46.075Z,99.90
2022-08-26T21:54:14.274Z,99.90
2022-08-26T21:56:44.145Z,99.90
2022-08-26T21:59:12.499Z,99.90
2022-08-26T22:01:40.191Z,99.90
2022-08-26T22:04:09.140Z,99.90
2022-08-26T22:06:44.024Z,99.90
2022-08-26T22:09:13.028Z,99.90
2022-08-26T22:11:41.349Z,99.90
2022-08-26T22:14:09.364Z,99.90
2022-08-26T22:16:37.036Z,99.90
2022-08-26T22:19:04.698Z,99.90
2022-08-26T22:21:32.605Z,99.90
2022-08-26T22:24:00.158Z,99.90
2022-08-26T22:26:30.283Z,99.90
2022-08-26T22:28:59.639Z,99.90
2022-08-26T22:31:37.577Z,99.90
2022-08-26T22:34:09.123Z,99.90
2022-08-26T22:36:42.973Z,99.90
2022-08-26T22:39:16.944Z,99.90
2022-08-26T22:41:45.259Z,99.90
2022-08-26T22:44:13.025Z,99.90
2022-08-26T22:46:42.006Z,99.90
2022-08-26T22:49:12.475Z,99.90
2022-08-26T22:51:40.093Z,99.90
2022-08-26T22:54:07.935Z,99.90
2022-08-26T22:56:36.003Z,99.90
2022-08-26T22:59:04.415Z,99.90
2022-08-26T23:01:35.687Z,99.90
2022-08-26T23:04:04.720Z,99.90
2022-08-26T23:06:34.800Z,99.90
2022-08-26T23:09:02.408Z,99.90
2022-08-26T23:11:29.926Z,99.90
2022-08-26T23:13:57.587Z,99.90
2022-08-26T23:16:26.390Z,99.90
2022-08-26T23:18:53.971Z,99.90
2022-08-26T23:21:21.767Z,99.90
2022-08-26T23:23:49.777Z,99.90
2022-08-26T23:26:17.834Z,99.90
2022-08-26T23:28:45.358Z,99.90
2022-08-26T23:31:14.330Z,99.90
2022-08-26T23:34:00.396Z,99.90
2022-08-26T23:36:28.639Z,99.90
2022-08-26T23:38:58.294Z,99.90
2022-08-26T23:41:26.065Z,99.90
2022-08-26T23:43:53.763Z,99.90
2022-08-26T23:46:21.289Z,99.90
2022-08-26T23:48:48.831Z,99.90
2022-08-26T23:51:39.234Z,99.90
2022-08-26T23:54:07.144Z,99.90
2022-08-26T23:56:35.884Z,99.90
2022-08-26T23:59:03.519Z,99.90
